Time;durP1;ratioP1;P1;durP2;ratioP2;P2;SDS_P1;SDS_P2;PMS_P1;PMS_P2;Temp;Humidity;BMP_temperature;BMP_pressure;BME280_temperature;BME280_humidity;BME280_pressure;Samples;Min_cycle;Max_cycle;Signal;HPM_P1;HPM_P2
2023/05/04 00:02:15;;;;;;;16.50;7.68;;;;;;;;;;4937298;29;20044;-85
2023/05/04 00:04:42;;;;;;;15.15;6.45;;;;;;;;;;4940390;29;20067;-84
2023/05/04 00:07:09;;;;;;;10.60;5.70;;;;;;;;;;4954955;28;20050;-85
2023/05/04 00:09:35;;;;;;;10.65;4.93;;;;;;;;;;4938578;29;20050;-85
2023/05/04 00:12:02;;;;;;;12.30;4.20;;;;;;;;;;4922778;29;21599;-83
2023/05/04 00:14:29;;;;;;;8.40;4.63;;;;;;;;;;4936119;29;20130;-83
2023/05/04 00:16:55;;;;;;;7.38;4.45;;;;;;;;;;4935759;29;20055;-83
2023/05/04 00:19:22;;;;;;;13.48;5.10;;;;;;;;;;4935024;29;20043;-84
2023/05/04 00:21:49;;;;;;;14.50;5.18;;;;;;;;;;4952312;28;20067;-83
2023/05/04 00:24:16;;;;;;;8.18;4.75;;;;;;;;;;4950468;28;20047;-83
2023/05/04 00:26:44;;;;;;;8.50;4.45;;;;;;;;;;4946333;29;20094;-82
2023/05/04 00:29:11;;;;;;;8.07;4.45;;;;;;;;;;4933244;29;20568;-85
2023/05/04 00:31:37;;;;;;;8.40;4.88;;;;;;;;;;4961218;28;20047;-86
2023/05/04 00:34:07;;;;;;;10.68;4.90;;;;;;;;;;4942174;28;20071;-86
2023/05/04 00:36:34;;;;;;;11.57;4.78;;;;;;;;;;4956925;28;20047;-86
2023/05/04 00:39:01;;;;;;;15.13;4.85;;;;;;;;;;4939712;28;20111;-86
2023/05/04 00:41:28;;;;;;;8.98;4.40;;;;;;;;;;4957608;28;20063;-84
2023/05/04 00:43:56;;;;;;;8.10;4.35;;;;;;;;;;4942325;28;20051;-84
2023/05/04 00:46:22;;;;;;;10.93;4.53;;;;;;;;;;4966971;28;20035;-84
2023/05/04 00:48:51;;;;;;;7.38;4.32;;;;;;;;;;4949850;28;20047;-84
2023/05/04 00:51:19;;;;;;;9.38;4.88;;;;;;;;;;4959866;28;20043;-86
2023/05/04 00:53:47;;;;;;;11.35;5.28;;;;;;;;;;4959976;28;20058;-85
2023/05/04 00:56:14;;;;;;;11.85;4.95;;;;;;;;;;4941802;29;20054;-83
2023/05/04 00:58:44;;;;;;;11.65;5.32;;;;;;;;;;4973846;28;20110;-84
2023/05/04 01:01:11;;;;;;;14.38;5.60;;;;;;;;;;4955745;28;20390;-83
2023/05/04 01:03:38;;;;;;;11.80;5.35;;;;;;;;;;4953415;28;20051;-83
2023/05/04 01:06:20;;;;;;;10.55;5.85;;;;;;;;;;4954213;28;20090;-83
2023/05/04 01:09:09;;;;;;;10.73;5.90;;;;;;;;;;4937392;29;20043;-85
2023/05/04 01:11:40;;;;;;;11.55;5.05;;;;;;;;;;4934582;28;20039;-85
2023/05/04 01:14:08;;;;;;;9.38;5.35;;;;;;;;;;4938993;28;20392;-83
2023/05/04 01:16:35;;;;;;;9.57;5.20;;;;;;;;;;4971319;28;20039;-83
2023/05/04 01:19:02;;;;;;;8.82;4.95;;;;;;;;;;4938846;28;20196;-84
2023/05/04 01:21:29;;;;;;;8.05;4.85;;;;;;;;;;4938568;28;20079;-84
2023/05/04 01:23:56;;;;;;;8.57;5.28;;;;;;;;;;4940884;28;20055;-85
2023/05/04 01:26:26;;;;;;;8.55;4.85;;;;;;;;;;4961666;28;20051;-86
2023/05/04 01:29:02;;;;;;;9.60;5.05;;;;;;;;;;4966847;28;20040;-85
2023/05/04 01:31:28;;;;;;;8.18;4.93;;;;;;;;;;4938017;29;20092;-85
2023/05/04 01:33:56;;;;;;;8.85;5.15;;;;;;;;;;4953358;28;20058;-84
2023/05/04 01:36:22;;;;;;;10.85;4.93;;;;;;;;;;4944298;29;20280;-85
2023/05/04 01:38:52;;;;;;;9.27;4.80;;;;;;;;;;4948493;29;20079;-85
2023/05/04 01:41:20;;;;;;;14.10;5.32;;;;;;;;;;4951014;29;20110;-83
2023/05/04 01:43:48;;;;;;;9.32;4.88;;;;;;;;;;4949920;29;20047;-84
2023/05/04 01:46:14;;;;;;;9.05;4.63;;;;;;;;;;4938799;29;20536;-85
2023/05/04 01:48:41;;;;;;;10.35;5.35;;;;;;;;;;4949912;28;20074;-83
2023/05/04 01:51:08;;;;;;;9.13;4.97;;;;;;;;;;4933264;29;20075;-85
2023/05/04 01:53:34;;;;;;;9.43;4.68;;;;;;;;;;4952501;29;20044;-84
2023/05/04 01:56:02;;;;;;;12.20;5.05;;;;;;;;;;4937755;29;20054;-85
2023/05/04 01:58:28;;;;;;;10.45;5.10;;;;;;;;;;4920166;29;20103;-85
2023/05/04 02:00:58;;;;;;;9.40;4.72;;;;;;;;;;4937419;29;20113;-85
2023/05/04 02:03:26;;;;;;;9.65;4.18;;;;;;;;;;4941362;29;20047;-85
2023/05/04 02:05:52;;;;;;;7.45;4.40;;;;;;;;;;4924166;29;20044;-85
2023/05/04 02:08:19;;;;;;;10.68;5.10;;;;;;;;;;4923099;29;20047;-87
2023/05/04 02:10:46;;;;;;;12.32;4.82;;;;;;;;;;4937667;29;20052;-84
2023/05/04 02:13:13;;;;;;;15.20;5.00;;;;;;;;;;4936628;29;20059;-85
2023/05/04 02:15:40;;;;;;;8.90;5.07;;;;;;;;;;4936700;29;20469;-83
2023/05/04 02:18:06;;;;;;;7.55;4.75;;;;;;;;;;4919530;29;20055;-85
2023/05/04 02:20:33;;;;;;;13.35;5.95;;;;;;;;;;4920370;29;20718;-86
2023/05/04 02:23:00;;;;;;;10.75;5.22;;;;;;;;;;4941549;28;20054;-84
2023/05/04 02:25:27;;;;;;;10.10;4.97;;;;;;;;;;4950559;28;20138;-84
2023/05/04 02:27:53;;;;;;;11.05;5.47;;;;;;;;;;4974485;28;20115;-85
2023/05/04 02:30:20;;;;;;;10.07;5.03;;;;;;;;;;4970498;28;20058;-84
2023/05/04 02:32:46;;;;;;;7.82;4.68;;;;;;;;;;4948270;28;20074;-85
2023/05/04 02:35:13;;;;;;;10.65;5.30;;;;;;;;;;4935758;28;20081;-83
2023/05/04 02:37:40;;;;;;;10.90;5.15;;;;;;;;;;4931615;28;20055;-83
2023/05/04 02:40:07;;;;;;;9.90;5.60;;;;;;;;;;4947827;28;20134;-84
2023/05/04 02:42:34;;;;;;;8.80;5.47;;;;;;;;;;4933095;28;20059;-83
2023/05/04 02:45:00;;;;;;;10.15;5.28;;;;;;;;;;4935916;28;20111;-83
2023/05/04 02:47:27;;;;;;;12.63;5.35;;;;;;;;;;4933495;28;20063;-84
2023/05/04 02:49:53;;;;;;;11.50;5.47;;;;;;;;;;4932613;28;20052;-84
2023/05/04 02:52:20;;;;;;;10.80;5.55;;;;;;;;;;4932946;28;20047;-84
2023/05/04 02:54:47;;;;;;;10.70;5.30;;;;;;;;;;4932349;28;20401;-86
2023/05/04 02:57:13;;;;;;;10.02;5.18;;;;;;;;;;4948725;28;20047;-85
2023/05/04 02:59:40;;;;;;;9.65;5.72;;;;;;;;;;4953756;28;20056;-83
2023/05/04 03:02:06;;;;;;;9.35;5.20;;;;;;;;;;4926867;28;20506;-84
2023/05/04 03:04:33;;;;;;;13.40;5.97;;;;;;;;;;4936880;28;20043;-85
2023/05/04 03:07:00;;;;;;;11.02;5.43;;;;;;;;;;4954134;29;20043;-83
2023/05/04 03:09:26;;;;;;;11.15;5.28;;;;;;;;;;4948277;28;20079;-83
2023/05/04 03:11:53;;;;;;;13.48;6.45;;;;;;;;;;4950483;28;20058;-84
2023/05/04 03:14:20;;;;;;;11.55;5.28;;;;;;;;;;4943071;28;20058;-87
2023/05/04 03:16:47;;;;;;;10.15;5.28;;;;;;;;;;4948483;28;20109;-87
2023/05/04 03:19:17;;;;;;;20.58;5.63;;;;;;;;;;4956478;28;20082;-84
2023/05/04 03:21:45;;;;;;;10.63;5.18;;;;;;;;;;4960568;28;20059;-86
2023/05/04 03:24:11;;;;;;;9.43;5.47;;;;;;;;;;4946178;28;20047;-87
2023/05/04 03:26:40;;;;;;;12.15;5.43;;;;;;;;;;4968221;28;20114;-84
2023/05/04 03:29:06;;;;;;;11.68;5.72;;;;;;;;;;4924370;28;20110;-85
2023/05/04 03:31:33;;;;;;;10.77;5.90;;;;;;;;;;4938291;28;20150;-85
2023/05/04 03:34:00;;;;;;;10.65;5.60;;;;;;;;;;4945866;29;20031;-85
2023/05/04 03:36:27;;;;;;;11.52;5.35;;;;;;;;;;4935601;28;20040;-86
2023/05/04 03:38:54;;;;;;;13.35;5.72;;;;;;;;;;4954419;28;20046;-85
2023/05/04 03:41:21;;;;;;;11.50;5.68;;;;;;;;;;4955996;28;20035;-86
2023/05/04 03:43:52;;;;;;;14.07;5.90;;;;;;;;;;4964503;28;20447;-85
2023/05/04 03:46:18;;;;;;;11.18;5.88;;;;;;;;;;4951737;28;20066;-86
2023/05/04 03:48:45;;;;;;;11.15;5.78;;;;;;;;;;4935948;28;20047;-83
2023/05/04 03:51:14;;;;;;;9.98;5.57;;;;;;;;;;4968030;28;20471;-87
2023/05/04 03:53:42;;;;;;;11.38;6.55;;;;;;;;;;4952118;28;20075;-87
2023/05/04 03:56:11;;;;;;;15.57;6.22;;;;;;;;;;4952315;28;20043;-86
2023/05/04 03:58:39;;;;;;;13.60;5.85;;;;;;;;;;4937804;28;20070;-86
2023/05/04 04:01:06;;;;;;;10.60;5.88;;;;;;;;;;4953399;28;20051;-84
2023/05/04 04:03:35;;;;;;;10.05;5.68;;;;;;;;;;4939208;29;20153;-87
2023/05/04 04:06:06;;;;;;;12.02;5.85;;;;;;;;;;4965847;28;20039;-85
2023/05/04 04:08:35;;;;;;;16.42;6.93;;;;;;;;;;4957311;28;20488;-87
2023/05/04 04:11:01;;;;;;;10.48;6.18;;;;;;;;;;4957198;28;20047;-86
2023/05/04 04:13:28;;;;;;;13.15;6.63;;;;;;;;;;4934244;28;20122;-84
2023/05/04 04:15:55;;;;;;;14.93;6.20;;;;;;;;;;4955110;28;20115;-85
2023/05/04 04:18:25;;;;;;;12.70;6.13;;;;;;;;;;4924312;29;20448;-84
2023/05/04 04:20:52;;;;;;;16.83;6.28;;;;;;;;;;4943026;28;20051;-85
2023/05/04 04:23:18;;;;;;;10.95;5.72;;;;;;;;;;4948150;28;20053;-83
2023/05/04 04:25:46;;;;;;;13.10;6.13;;;;;;;;;;4949707;28;20122;-82
2023/05/04 04:28:13;;;;;;;17.20;6.03;;;;;;;;;;4949531;28;20051;-85
2023/05/04 04:30:40;;;;;;;11.85;6.35;;;;;;;;;;4953336;28;20520;-86
2023/05/04 04:33:07;;;;;;;13.70;6.70;;;;;;;;;;4956218;28;20048;-86
2023/05/04 04:35:34;;;;;;;9.65;5.95;;;;;;;;;;4970939;28;20035;-85
2023/05/04 04:38:01;;;;;;;12.02;5.95;;;;;;;;;;4967248;28;20138;-83
2023/05/04 04:40:29;;;;;;;16.05;6.07;;;;;;;;;;4960003;28;20138;-86
2023/05/04 04:42:56;;;;;;;18.70;5.68;;;;;;;;;;4979493;28;20062;-84
2023/05/04 04:45:23;;;;;;;15.13;6.65;;;;;;;;;;4985487;28;20070;-83
2023/05/04 04:47:49;;;;;;;15.80;7.10;;;;;;;;;;4965596;28;20115;-84
2023/05/04 04:50:16;;;;;;;13.75;6.55;;;;;;;;;;4953357;28;20078;-88
2023/05/04 04:52:43;;;;;;;16.23;6.97;;;;;;;;;;4935088;28;20632;-87
2023/05/04 04:55:09;;;;;;;14.80;6.57;;;;;;;;;;4945517;29;20091;-83
2023/05/04 04:57:36;;;;;;;17.90;6.50;;;;;;;;;;4949376;28;20134;-85
2023/05/04 05:00:08;;;;;;;17.30;7.28;;;;;;;;;;4955178;28;20062;-85
2023/05/04 05:02:35;;;;;;;14.15;7.18;;;;;;;;;;4957111;28;20452;-84
2023/05/04 05:05:04;;;;;;;17.85;8.30;;;;;;;;;;4950576;28;20043;-84
2023/05/04 05:07:31;;;;;;;13.55;6.90;;;;;;;;;;4939840;28;20094;-86
2023/05/04 05:10:00;;;;;;;15.95;6.95;;;;;;;;;;4941773;28;20107;-85
2023/05/04 05:12:31;;;;;;;18.85;7.50;;;;;;;;;;4956835;28;20042;-84
2023/05/04 05:14:58;;;;;;;18.25;6.75;;;;;;;;;;4939709;28;20518;-86
2023/05/04 05:17:25;;;;;;;22.00;7.95;;;;;;;;;;4936037;28;20061;-85
2023/05/04 05:19:51;;;;;;;17.20;7.30;;;;;;;;;;4953363;28;20105;-84
2023/05/04 05:22:18;;;;;;;23.15;7.32;;;;;;;;;;4953287;28;20564;-85
2023/05/04 05:24:45;;;;;;;21.95;8.02;;;;;;;;;;4954465;28;20035;-86
2023/05/04 05:27:12;;;;;;;22.33;7.47;;;;;;;;;;4910834;29;20468;-85
2023/05/04 05:29:38;;;;;;;20.15;7.60;;;;;;;;;;4946166;28;20558;-85
2023/05/04 05:32:05;;;;;;;18.98;7.38;;;;;;;;;;4954961;28;20451;-86
2023/05/04 05:34:37;;;;;;;14.90;7.07;;;;;;;;;;4954688;28;20492;-85
2023/05/04 05:37:09;;;;;;;19.55;7.00;;;;;;;;;;4955556;28;20051;-86
2023/05/04 05:39:36;;;;;;;13.85;7.15;;;;;;;;;;4954835;28;20102;-86
2023/05/04 05:42:04;;;;;;;19.02;7.22;;;;;;;;;;4956672;28;20103;-84
2023/05/04 05:44:36;;;;;;;19.63;7.22;;;;;;;;;;4927283;28;20047;-85
2023/05/04 05:47:03;;;;;;;15.00;7.05;;;;;;;;;;4941272;28;20492;-85
2023/05/04 05:49:34;;;;;;;16.55;6.82;;;;;;;;;;4942348;28;20051;-84
2023/05/04 05:52:03;;;;;;;16.92;6.38;;;;;;;;;;4946057;28;20059;-85
2023/05/04 05:54:30;;;;;;;14.70;6.22;;;;;;;;;;4935410;28;20051;-84
2023/05/04 05:57:03;;;;;;;17.55;7.10;;;;;;;;;;4920170;28;20147;-84
2023/05/04 05:59:41;;;;;;;16.50;6.57;;;;;;;;;;4947760;28;20047;-84
2023/05/04 06:02:20;;;;;;;22.85;6.90;;;;;;;;;;4961297;28;20054;-83
2023/05/04 06:04:51;;;;;;;14.40;6.78;;;;;;;;;;4977493;28;20642;-85
2023/05/04 06:07:20;;;;;;;15.73;6.88;;;;;;;;;;4955702;28;20696;-85
2023/05/04 06:09:47;;;;;;;15.40;6.03;;;;;;;;;;4941544;28;20122;-83
2023/05/04 06:12:15;;;;;;;11.80;6.60;;;;;;;;;;4966826;28;20035;-86
2023/05/04 06:14:42;;;;;;;24.80;7.35;;;;;;;;;;4955173;28;20050;-83
2023/05/04 06:17:09;;;;;;;14.15;6.20;;;;;;;;;;4951621;28;20401;-85
2023/05/04 06:19:41;;;;;;;18.92;6.70;;;;;;;;;;4935994;28;20055;-85
2023/05/04 06:22:09;;;;;;;15.68;6.68;;;;;;;;;;4951577;28;20512;-85
2023/05/04 06:24:36;;;;;;;19.27;6.93;;;;;;;;;;4944400;28;20046;-86
2023/05/04 06:27:03;;;;;;;15.88;6.38;;;;;;;;;;4956183;28;20047;-84
2023/05/04 06:29:30;;;;;;;16.48;6.60;;;;;;;;;;4939471;29;20047;-85
2023/05/04 06:31:57;;;;;;;19.27;7.03;;;;;;;;;;4938733;29;20051;-86
2023/05/04 06:34:24;;;;;;;15.80;5.28;;;;;;;;;;4951342;28;20073;-86
2023/05/04 06:36:51;;;;;;;13.10;5.55;;;;;;;;;;4936456;29;20090;-86
2023/05/04 06:39:18;;;;;;;20.77;6.35;;;;;;;;;;4934870;29;20036;-83
2023/05/04 06:41:45;;;;;;;11.25;5.10;;;;;;;;;;4926681;29;20031;-84
2023/05/04 06:44:16;;;;;;;12.18;5.05;;;;;;;;;;4928827;29;20048;-84
2023/05/04 06:46:45;;;;;;;27.48;10.57;;;;;;;;;;4931767;29;20071;-84
2023/05/04 06:49:12;;;;;;;21.33;5.18;;;;;;;;;;4913920;29;20047;-85
2023/05/04 06:51:39;;;;;;;15.35;5.65;;;;;;;;;;4952103;28;20107;-84
2023/05/04 06:54:06;;;;;;;19.08;6.50;;;;;;;;;;4946010;29;20043;-83
2023/05/04 06:56:33;;;;;;;16.05;6.60;;;;;;;;;;4966731;28;20111;-85
2023/05/04 06:58:59;;;;;;;12.00;5.70;;;;;;;;;;4950564;29;20143;-84
2023/05/04 07:01:26;;;;;;;25.50;8.93;;;;;;;;;;4952305;28;20051;-85
2023/05/04 07:03:57;;;;;;;18.38;7.85;;;;;;;;;;4938452;29;20150;-84
2023/05/04 07:06:27;;;;;;;21.00;9.20;;;;;;;;;;4930876;29;20051;-84
2023/05/04 07:08:54;;;;;;;28.45;9.23;;;;;;;;;;4917171;29;20051;-85
2023/05/04 07:11:20;;;;;;;14.45;5.40;;;;;;;;;;4935286;29;20047;-85
2023/05/04 07:13:47;;;;;;;11.07;3.90;;;;;;;;;;4931394;29;20066;-83
2023/05/04 07:16:14;;;;;;;20.65;6.72;;;;;;;;;;4931857;29;20165;-83
2023/05/04 07:18:40;;;;;;;19.75;5.72;;;;;;;;;;4948601;29;20516;-85
2023/05/04 07:21:10;;;;;;;17.67;4.93;;;;;;;;;;4935862;29;20635;-85
2023/05/04 07:23:54;;;;;;;13.40;5.93;;;;;;;;;;4951157;28;20125;-84
2023/05/04 07:26:21;;;;;;;11.35;5.28;;;;;;;;;;4932278;28;20049;-84
2023/05/04 07:28:47;;;;;;;20.58;7.85;;;;;;;;;;4951334;28;20059;-85
2023/05/04 07:31:14;;;;;;;16.83;6.38;;;;;;;;;;4919147;29;20099;-84
2023/05/04 07:33:41;;;;;;;25.38;4.30;;;;;;;;;;4935726;29;20075;-85
2023/05/04 07:36:08;;;;;;;16.25;4.15;;;;;;;;;;4938521;28;20130;-84
2023/05/04 07:38:35;;;;;;;27.00;4.70;;;;;;;;;;4934418;29;20079;-85
2023/05/04 07:41:01;;;;;;;23.02;4.35;;;;;;;;;;4937486;29;20056;-85
2023/05/04 07:43:28;;;;;;;25.73;5.80;;;;;;;;;;4937239;29;20042;-85
2023/05/04 07:45:58;;;;;;;13.00;4.45;;;;;;;;;;4933524;29;20059;-85
2023/05/04 07:48:24;;;;;;;17.85;4.93;;;;;;;;;;4931900;29;20048;-83
2023/05/04 07:50:52;;;;;;;14.70;4.57;;;;;;;;;;4934542;29;20077;-84
2023/05/04 07:53:24;;;;;;;11.00;3.10;;;;;;;;;;4935488;29;20498;-84
2023/05/04 07:55:53;;;;;;;11.55;3.53;;;;;;;;;;4937605;29;20051;-83
2023/05/04 07:58:20;;;;;;;10.05;4.45;;;;;;;;;;4948067;29;20119;-84
2023/05/04 08:00:46;;;;;;;15.85;6.38;;;;;;;;;;4938854;29;20127;-85
2023/05/04 08:03:13;;;;;;;7.53;2.58;;;;;;;;;;4934945;29;20135;-83
2023/05/04 08:05:40;;;;;;;8.27;2.50;;;;;;;;;;4933197;29;20052;-84
2023/05/04 08:08:07;;;;;;;7.97;2.55;;;;;;;;;;4929436;29;20039;-85
2023/05/04 08:10:37;;;;;;;6.90;2.28;;;;;;;;;;4922139;29;20127;-86
2023/05/04 08:13:04;;;;;;;5.35;2.25;;;;;;;;;;4935828;29;20059;-85
2023/05/04 08:15:30;;;;;;;8.07;2.38;;;;;;;;;;4934814;29;20052;-84
2023/05/04 08:17:58;;;;;;;6.90;2.30;;;;;;;;;;4933585;29;20625;-85
2023/05/04 08:20:24;;;;;;;10.20;3.00;;;;;;;;;;4933290;29;20051;-83
2023/05/04 08:22:52;;;;;;;11.48;2.83;;;;;;;;;;4942954;28;20448;-86
2023/05/04 08:25:18;;;;;;;7.68;2.40;;;;;;;;;;4928681;28;20159;-85
2023/05/04 08:27:45;;;;;;;6.88;2.55;;;;;;;;;;4935520;28;20062;-85
2023/05/04 08:30:12;;;;;;;7.18;2.35;;;;;;;;;;4952603;28;20133;-87
2023/05/04 08:32:38;;;;;;;12.05;2.67;;;;;;;;;;4957144;28;20134;-85
2023/05/04 08:35:05;;;;;;;9.20;3.00;;;;;;;;;;4966445;28;20059;-86
2023/05/04 08:37:32;;;;;;;9.80;2.25;;;;;;;;;;4971121;28;20062;-85
2023/05/04 08:39:59;;;;;;;7.88;2.50;;;;;;;;;;4946549;29;20070;-87
2023/05/04 08:42:26;;;;;;;4.80;2.17;;;;;;;;;;4956731;28;20160;-85
2023/05/04 08:44:54;;;;;;;8.52;2.30;;;;;;;;;;4957848;28;20055;-85
2023/05/04 08:47:24;;;;;;;9.02;2.40;;;;;;;;;;4935847;28;20050;-84
2023/05/04 08:49:51;;;;;;;6.22;2.17;;;;;;;;;;4951816;28;20051;-85
2023/05/04 08:52:20;;;;;;;9.77;1.90;;;;;;;;;;4952694;28;20131;-84
2023/05/04 08:54:48;;;;;;;5.13;1.90;;;;;;;;;;4936738;28;20039;-86
2023/05/04 08:57:15;;;;;;;7.40;2.08;;;;;;;;;;4941728;28;20051;-86
2023/05/04 08:59:43;;;;;;;5.00;1.90;;;;;;;;;;4952313;28;20082;-86
2023/05/04 09:02:10;;;;;;;7.10;2.08;;;;;;;;;;4937043;28;20106;-87
2023/05/04 09:04:37;;;;;;;8.02;2.03;;;;;;;;;;4958047;28;20067;-86
2023/05/04 09:07:03;;;;;;;10.25;2.35;;;;;;;;;;4954937;29;20054;-86
2023/05/04 09:09:30;;;;;;;7.72;2.22;;;;;;;;;;4971130;28;20079;-85
2023/05/04 09:11:57;;;;;;;10.65;2.53;;;;;;;;;;4957045;28;20133;-86
2023/05/04 09:14:30;;;;;;;11.73;2.75;;;;;;;;;;4955859;28;20483;-86
2023/05/04 09:16:58;;;;;;;7.55;2.70;;;;;;;;;;4940077;28;20523;-85
2023/05/04 09:19:32;;;;;;;9.25;2.92;;;;;;;;;;4957311;28;20078;-86
2023/05/04 09:21:59;;;;;;;7.22;2.50;;;;;;;;;;4961243;28;20059;-85
2023/05/04 09:24:29;;;;;;;7.32;2.25;;;;;;;;;;4941155;28;20047;-84
2023/05/04 09:27:11;;;;;;;7.22;2.00;;;;;;;;;;4969570;28;20468;-87
2023/05/04 09:29:41;;;;;;;5.97;2.20;;;;;;;;;;4945604;28;20047;-85
2023/05/04 09:32:13;;;;;;;5.57;1.88;;;;;;;;;;4954037;28;20055;-85
2023/05/04 09:35:06;;;;;;;7.60;2.13;;;;;;;;;;4952682;28;20039;-84
2023/05/04 09:37:42;;;;;;;5.38;1.92;;;;;;;;;;4953270;28;20103;-83
2023/05/04 09:40:08;;;;;;;4.90;2.15;;;;;;;;;;4953064;28;20057;-84
2023/05/04 09:42:36;;;;;;;8.18;2.50;;;;;;;;;;4953092;28;20134;-85
2023/05/04 09:45:03;;;;;;;8.48;1.98;;;;;;;;;;4938102;28;20058;-84
2023/05/04 09:47:33;;;;;;;9.75;2.05;;;;;;;;;;4955963;28;20063;-84
2023/05/04 09:50:13;;;;;;;8.52;1.85;;;;;;;;;;4953121;28;20058;-84
2023/05/04 09:52:42;;;;;;;6.85;2.10;;;;;;;;;;4939138;28;20062;-86
2023/05/04 09:55:13;;;;;;;6.30;2.08;;;;;;;;;;4970113;28;20130;-85
2023/05/04 09:57:41;;;;;;;5.40;1.95;;;;;;;;;;4954786;28;20103;-86
2023/05/04 10:00:16;;;;;;;8.27;2.50;;;;;;;;;;4960892;28;20086;-86
2023/05/04 10:02:46;;;;;;;9.40;2.33;;;;;;;;;;4959793;28;20043;-85
2023/05/04 10:05:14;;;;;;;5.82;2.03;;;;;;;;;;4959528;28;20590;-84
2023/05/04 10:07:41;;;;;;;6.50;1.90;;;;;;;;;;4955106;28;20043;-85
2023/05/04 10:10:09;;;;;;;6.10;2.30;;;;;;;;;;4956685;28;20058;-87
2023/05/04 10:12:36;;;;;;;8.05;2.45;;;;;;;;;;4954357;28;20051;-86
2023/05/04 10:15:05;;;;;;;9.50;2.20;;;;;;;;;;4954517;28;20495;-86
2023/05/04 10:17:51;;;;;;;7.53;2.53;;;;;;;;;;4955608;28;20062;-84
2023/05/04 10:20:18;;;;;;;6.85;2.08;;;;;;;;;;4954952;28;20051;-85
2023/05/04 10:23:02;;;;;;;7.53;2.22;;;;;;;;;;4950975;28;20043;-85
2023/05/04 10:25:47;;;;;;;8.75;2.00;;;;;;;;;;4951300;28;20047;-87
2023/05/04 10:28:22;;;;;;;4.73;2.27;;;;;;;;;;4956308;28;20050;-87
2023/05/04 10:30:55;;;;;;;5.13;1.90;;;;;;;;;;4935168;29;20051;-86
2023/05/04 10:33:21;;;;;;;5.35;2.00;;;;;;;;;;4934055;29;20059;-85
2023/05/04 10:35:52;;;;;;;4.97;2.05;;;;;;;;;;4933648;29;20036;-85
2023/05/04 10:38:18;;;;;;;10.43;2.10;;;;;;;;;;4934209;29;20079;-83
2023/05/04 10:40:48;;;;;;;6.10;2.00;;;;;;;;;;4917956;29;20039;-86
2023/05/04 10:43:24;;;;;;;9.75;2.20;;;;;;;;;;4934530;29;20040;-87
2023/05/04 10:45:51;;;;;;;5.22;2.10;;;;;;;;;;4935851;29;20048;-85
2023/05/04 10:48:17;;;;;;;4.20;1.88;;;;;;;;;;4944448;29;20126;-88
2023/05/04 10:50:50;;;;;;;6.50;2.25;;;;;;;;;;4927049;29;20063;-88
2023/05/04 10:53:17;;;;;;;4.13;2.05;;;;;;;;;;4931951;29;20048;-85
2023/05/04 10:55:45;;;;;;;6.47;2.30;;;;;;;;;;4932227;29;20047;-86
2023/05/04 10:58:13;;;;;;;8.43;2.30;;;;;;;;;;4933088;29;20079;-85
2023/05/04 11:00:40;;;;;;;8.07;2.42;;;;;;;;;;4933549;29;20050;-85
2023/05/04 11:03:07;;;;;;;4.90;1.90;;;;;;;;;;4918423;29;20588;-85
2023/05/04 11:05:42;;;;;;;5.43;2.10;;;;;;;;;;4916104;29;20058;-84
2023/05/04 11:08:14;;;;;;;5.70;2.40;;;;;;;;;;4930915;29;20047;-84
2023/05/04 11:10:41;;;;;;;7.10;2.20;;;;;;;;;;4931290;29;20071;-85
2023/05/04 11:13:10;;;;;;;6.63;1.95;;;;;;;;;;4934214;29;20058;-85
2023/05/04 11:15:49;;;;;;;5.13;2.00;;;;;;;;;;4937168;29;20051;-85
2023/05/04 11:18:24;;;;;;;6.68;2.30;;;;;;;;;;4946652;29;20061;-87
2023/05/04 11:20:51;;;;;;;6.20;2.17;;;;;;;;;;4924537;29;20505;-87
2023/05/04 11:23:17;;;;;;;6.70;2.20;;;;;;;;;;4956202;28;20039;-87
2023/05/04 11:25:44;;;;;;;7.78;2.40;;;;;;;;;;4960199;28;20107;-86
2023/05/04 11:28:10;;;;;;;4.28;2.00;;;;;;;;;;4957287;28;20068;-86
2023/05/04 11:30:41;;;;;;;5.75;2.15;;;;;;;;;;4971042;28;20126;-84
2023/05/04 11:33:11;;;;;;;5.15;1.85;;;;;;;;;;4939166;28;20620;-86
2023/05/04 11:35:38;;;;;;;6.18;2.13;;;;;;;;;;4941164;28;20070;-85
2023/05/04 11:38:05;;;;;;;7.93;2.30;;;;;;;;;;4924678;28;20043;-86
2023/05/04 11:40:32;;;;;;;7.32;2.20;;;;;;;;;;4940388;28;20067;-84
2023/05/04 11:42:59;;;;;;;4.30;1.75;;;;;;;;;;4940150;28;20051;-84
2023/05/04 11:45:28;;;;;;;6.57;2.00;;;;;;;;;;4941556;28;20058;-85
2023/05/04 11:47:55;;;;;;;4.55;1.92;;;;;;;;;;4939667;28;20054;-87
2023/05/04 11:50:23;;;;;;;6.07;1.90;;;;;;;;;;4935920;28;20044;-86
2023/05/04 11:52:49;;;;;;;5.43;1.92;;;;;;;;;;4939874;28;20050;-85
2023/05/04 11:55:26;;;;;;;6.47;2.30;;;;;;;;;;4945052;28;20529;-85
2023/05/04 11:57:56;;;;;;;7.90;2.38;;;;;;;;;;4956395;28;20036;-86
2023/05/04 12:00:33;;;;;;;10.00;2.35;;;;;;;;;;4940622;28;20474;-86
2023/05/04 12:03:00;;;;;;;5.70;2.20;;;;;;;;;;4941856;28;20127;-85
2023/05/04 12:05:27;;;;;;;4.03;1.90;;;;;;;;;;4946617;29;20067;-87
2023/05/04 12:07:54;;;;;;;8.68;2.30;;;;;;;;;;4945328;28;20092;-87
2023/05/04 12:10:24;;;;;;;8.05;2.00;;;;;;;;;;4943933;28;20067;-86
2023/05/04 12:12:50;;;;;;;10.77;2.20;;;;;;;;;;4944988;28;20182;-86
2023/05/04 12:15:26;;;;;;;6.13;1.92;;;;;;;;;;4946942;28;20103;-86
2023/05/04 12:17:52;;;;;;;5.03;2.00;;;;;;;;;;4953267;28;20047;-86
2023/05/04 12:20:24;;;;;;;6.32;1.92;;;;;;;;;;4938504;28;20040;-86
2023/05/04 12:22:52;;;;;;;7.95;2.00;;;;;;;;;;4954589;28;20130;-85
2023/05/04 12:25:19;;;;;;;7.13;2.00;;;;;;;;;;4954613;28;20044;-87
2023/05/04 12:27:46;;;;;;;7.38;2.00;;;;;;;;;;4946173;28;20051;-88
2023/05/04 12:30:13;;;;;;;6.47;1.85;;;;;;;;;;4957030;28;20057;-87
2023/05/04 12:32:40;;;;;;;5.68;1.83;;;;;;;;;;4945499;28;20040;-86
2023/05/04 12:35:10;;;;;;;5.07;1.65;;;;;;;;;;4960563;28;20047;-86
2023/05/04 12:37:41;;;;;;;6.93;1.90;;;;;;;;;;4955518;28;20049;-86
2023/05/04 12:40:08;;;;;;;9.73;2.10;;;;;;;;;;4954824;28;20054;-86
2023/05/04 12:42:52;;;;;;;5.15;2.00;;;;;;;;;;4965415;28;20054;-85
2023/05/04 12:45:21;;;;;;;4.25;1.70;;;;;;;;;;4962968;28;20078;-86
2023/05/04 12:47:48;;;;;;;6.32;1.70;;;;;;;;;;4963826;28;20242;-87
2023/05/04 12:50:14;;;;;;;3.58;1.63;;;;;;;;;;4960962;28;20157;-87
2023/05/04 12:52:42;;;;;;;3.80;1.65;;;;;;;;;;4942765;28;20051;-87
2023/05/04 12:55:08;;;;;;;4.80;1.80;;;;;;;;;;4964575;28;20043;-86
2023/05/04 12:57:35;;;;;;;6.95;1.77;;;;;;;;;;4962107;28;20047;-87
2023/05/04 13:00:03;;;;;;;6.30;1.85;;;;;;;;;;4943052;29;20055;-87
2023/05/04 13:02:29;;;;;;;6.35;1.75;;;;;;;;;;4960981;28;20055;-87
2023/05/04 13:04:56;;;;;;;6.35;1.90;;;;;;;;;;4959234;28;20051;-86
2023/05/04 13:07:23;;;;;;;5.32;1.80;;;;;;;;;;4942082;28;20077;-85
2023/05/04 13:09:52;;;;;;;8.50;1.73;;;;;;;;;;4957303;28;20122;-86
2023/05/04 13:12:18;;;;;;;5.90;1.65;;;;;;;;;;4958984;28;20050;-85
2023/05/04 13:14:45;;;;;;;9.13;1.90;;;;;;;;;;4958675;28;20392;-85
2023/05/04 13:17:12;;;;;;;7.75;1.85;;;;;;;;;;4962588;28;20429;-86
2023/05/04 13:19:38;;;;;;;4.32;1.80;;;;;;;;;;4960103;28;20043;-85
2023/05/04 13:22:05;;;;;;;4.93;1.77;;;;;;;;;;4955205;28;20122;-78
2023/05/04 13:24:32;;;;;;;6.13;1.80;;;;;;;;;;4941436;28;20052;-82
2023/05/04 13:26:58;;;;;;;4.35;1.50;;;;;;;;;;4951500;28;20054;-79
2023/05/04 13:29:25;;;;;;;5.47;1.45;;;;;;;;;;4952345;28;20044;-80
2023/05/04 13:31:52;;;;;;;5.47;1.60;;;;;;;;;;4953057;28;20114;-80
2023/05/04 13:34:19;;;;;;;5.53;1.85;;;;;;;;;;4954261;28;20054;-81
2023/05/04 13:36:46;;;;;;;4.68;1.90;;;;;;;;;;4956158;28;20070;-79
2023/05/04 13:39:13;;;;;;;9.65;2.30;;;;;;;;;;4938520;28;20431;-80
2023/05/04 13:41:39;;;;;;;4.95;2.00;;;;;;;;;;4952469;28;20036;-82
2023/05/04 13:44:06;;;;;;;9.82;1.75;;;;;;;;;;4931754;29;20099;-73
2023/05/04 13:46:34;;;;;;;11.00;1.88;;;;;;;;;;4928390;28;20401;-74
2023/05/04 13:49:00;;;;;;;6.55;1.70;;;;;;;;;;4930909;28;20054;-73
2023/05/04 13:51:27;;;;;;;6.22;1.70;;;;;;;;;;4945008;28;20044;-73
2023/05/04 13:53:53;;;;;;;4.80;1.73;;;;;;;;;;4941080;28;20051;-73
2023/05/04 13:56:20;;;;;;;4.07;1.70;;;;;;;;;;4956092;28;20035;-73
2023/05/04 13:58:46;;;;;;;6.72;1.75;;;;;;;;;;4941408;28;20044;-73
2023/05/04 14:01:13;;;;;;;4.25;1.50;;;;;;;;;;4937908;28;20130;-74
2023/05/04 14:03:40;;;;;;;4.65;1.75;;;;;;;;;;4943520;28;20114;-74
2023/05/04 14:06:06;;;;;;;5.40;1.95;;;;;;;;;;4948472;28;20044;-77
2023/05/04 14:08:33;;;;;;;10.55;2.13;;;;;;;;;;4945208;28;20074;-85
2023/05/04 14:11:01;;;;;;;6.53;1.35;;;;;;;;;;4972919;28;20087;-81
2023/05/04 14:13:28;;;;;;;4.47;1.85;;;;;;;;;;4957925;28;20039;-82
2023/05/04 14:15:55;;;;;;;6.10;1.80;;;;;;;;;;4958121;28;20047;-83
2023/05/04 14:18:23;;;;;;;6.32;1.98;;;;;;;;;;4961534;28;20078;-82
2023/05/04 14:20:55;;;;;;;7.55;1.85;;;;;;;;;;4932483;28;20058;-84
2023/05/04 14:23:22;;;;;;;3.72;1.60;;;;;;;;;;4949952;28;20531;-83
2023/05/04 14:25:56;;;;;;;4.60;1.40;;;;;;;;;;4943269;28;20048;-83
2023/05/04 14:28:25;;;;;;;8.30;1.92;;;;;;;;;;4923540;28;20043;-85
2023/05/04 14:30:52;;;;;;;4.22;1.70;;;;;;;;;;4951827;28;20763;-84
2023/05/04 14:33:19;;;;;;;5.05;1.95;;;;;;;;;;4945974;28;20044;-85
2023/05/04 14:35:46;;;;;;;6.88;1.75;;;;;;;;;;4968740;28;20471;-83
2023/05/04 14:38:13;;;;;;;8.23;1.70;;;;;;;;;;4955443;28;20128;-85
2023/05/04 14:40:40;;;;;;;4.95;1.65;;;;;;;;;;4952623;28;20138;-84
2023/05/04 14:43:09;;;;;;;8.15;1.80;;;;;;;;;;4955071;28;20306;-84